Time,TemperatureF,DewpointF,PressureIn,WindDirection,WindDirectionDegrees,WindSpeedMPH,WindSpeedGustMPH,Humidity,HourlyPrecipIn,Conditions,Clouds,dailyrainin,SolarRadiationWatts/m^2,SoftwareType,DateUTC
2013-10-22 00:01:00,52.0,46.0,-100.00,WNW,295,0.0,3.0,79,0.00,,,0.00,0.000000,,2013-10-22 04:01:00,
2013-10-22 00:43:00,52.0,46.0,-100.00,WNW,295,0.0,3.0,79,0.00,,,0.00,0.000000,,2013-10-22 04:43:00,
2013-10-22 00:55:00,52.0,46.0,-100.00,WNW,295,0.0,3.0,79,0.00,,,0.00,0.000000,,2013-10-22 04:55:00,
2013-10-22 01:01:00,50.0,46.0,-100.00,WNW,287,0.0,2.0,85,0.00,,,0.00,0.000000,,2013-10-22 05:01:00,
2013-10-22 01:43:00,50.0,46.0,-100.00,WNW,287,0.0,2.0,85,0.00,,,0.00,0.000000,,2013-10-22 05:43:00,
2013-10-22 01:53:00,50.0,46.0,-100.00,WNW,287,0.0,2.0,85,0.00,,,0.00,0.000000,,2013-10-22 05:53:00,
2013-10-22 02:01:00,51.0,46.0,-100.00,NNW,327,0.0,3.0,83,0.00,,,0.00,0.000000,,2013-10-22 06:01:00,
2013-10-22 02:43:00,51.0,46.0,-100.00,NNW,327,0.0,3.0,83,0.00,,,0.00,0.000000,,2013-10-22 06:43:00,
2013-10-22 02:54:00,51.0,46.0,-100.00,NNW,327,0.0,3.0,83,0.00,,,0.00,0.000000,,2013-10-22 06:54:00,
2013-10-22 03:01:00,49.0,46.0,-100.00,WNW,299,0.0,2.0,88,0.00,,,0.00,0.000000,,2013-10-22 07:01:00,
2013-10-22 03:42:00,49.0,46.0,-100.00,WNW,299,0.0,2.0,88,0.00,,,0.00,0.000000,,2013-10-22 07:42:00,
2013-10-22 03:52:00,49.0,46.0,-100.00,WNW,299,0.0,2.0,88,0.00,,,0.00,0.000000,,2013-10-22 07:52:00,
2013-10-22 04:01:00,49.0,47.0,-100.00,South,175,0.0,0.0,92,0.00,,,0.00,0.000000,,2013-10-22 08:01:00,
2013-10-22 04:22:00,49.0,47.0,-100.00,South,175,0.0,0.0,92,0.00,,,0.00,0.000000,,2013-10-22 08:22:00,
2013-10-22 04:32:00,49.0,47.0,-100.00,South,175,0.0,0.0,92,0.00,,,0.00,0.000000,,2013-10-22 08:32:00,
2013-10-22 04:42:00,49.0,47.0,-100.00,South,175,0.0,0.0,92,0.00,,,0.00,0.000000,,2013-10-22 08:42:00,
2013-10-22 04:52:00,49.0,47.0,-100.00,South,175,0.0,0.0,92,0.00,,,0.00,0.000000,,2013-10-22 08:52:00,
2013-10-22 05:01:00,50.0,48.0,-100.00,West,259,0.0,2.0,93,0.00,,,0.00,0.000000,,2013-10-22 09:01:00,
2013-10-22 05:43:00,50.0,48.0,-100.00,West,259,0.0,2.0,93,0.00,,,0.00,0.000000,,2013-10-22 09:43:00,
2013-10-22 05:54:00,50.0,48.0,-100.00,West,259,0.0,2.0,93,0.00,,,0.00,0.000000,,2013-10-22 09:54:00,
2013-10-22 06:01:00,49.0,47.0,-100.00,WNW,283,0.0,1.0,93,0.00,,,0.00,0.000000,,2013-10-22 10:01:00,
2013-10-22 06:43:00,49.0,47.0,-100.00,WNW,283,0.0,1.0,93,0.00,,,0.00,0.000000,,2013-10-22 10:43:00,
2013-10-22 06:54:00,49.0,47.0,-100.00,WNW,283,0.0,1.0,93,0.00,,,0.00,0.000000,,2013-10-22 10:54:00,
2013-10-22 07:01:00,49.0,48.0,-100.00,NW,320,0.0,2.0,95,0.00,,,0.00,0.000000,,2013-10-22 11:01:00,
2013-10-22 07:42:00,49.0,48.0,-100.00,NW,320,0.0,2.0,95,0.00,,,0.00,0.000000,,2013-10-22 11:42:00,
2013-10-22 07:53:00,49.0,48.0,-100.00,NW,320,0.0,2.0,95,0.00,,,0.00,0.000000,,2013-10-22 11:53:00,
2013-10-22 08:01:00,50.0,48.0,-100.00,SSW,194,0.0,3.0,94,0.00,,,0.00,13.000000,,2013-10-22 12:01:00,
2013-10-22 08:42:00,50.0,48.0,-100.00,SSW,194,0.0,3.0,94,0.00,,,0.00,13.000000,,2013-10-22 12:42:00,
2013-10-22 08:52:00,50.0,48.0,-100.00,SSW,194,0.0,3.0,94,0.00,,,0.00,13.000000,,2013-10-22 12:52:00,
2013-10-22 09:01:00,63.0,53.0,-100.00,SW,223,1.0,5.0,71,0.00,,,0.00,118.000000,,2013-10-22 13:01:00,
2013-10-22 09:42:00,63.0,53.0,-100.00,SW,223,1.0,5.0,71,0.00,,,0.00,118.000000,,2013-10-22 13:42:00,
2013-10-22 09:53:00,63.0,53.0,-100.00,SW,223,1.0,5.0,71,0.00,,,0.00,118.000000,,2013-10-22 13:53:00,
2013-10-22 10:01:00,66.0,49.0,-100.00,SW,236,3.0,11.0,55,0.00,,,0.00,179.000000,,2013-10-22 14:01:00,
2013-10-22 10:42:00,66.0,49.0,-100.00,SW,236,3.0,11.0,55,0.00,,,0.00,179.000000,,2013-10-22 14:42:00,
2013-10-22 10:52:00,66.0,49.0,-100.00,SW,236,3.0,11.0,55,0.00,,,0.00,179.000000,,2013-10-22 14:52:00,
2013-10-22 11:01:00,68.0,49.0,-100.00,WSW,239,3.0,10.0,50,0.00,,,0.00,219.000000,,2013-10-22 15:01:00,
2013-10-22 11:22:00,68.0,49.0,-100.00,WSW,239,3.0,10.0,50,0.00,,,0.00,219.000000,,2013-10-22 15:22:00,
2013-10-22 11:33:00,68.0,49.0,-100.00,WSW,239,3.0,10.0,50,0.00,,,0.00,219.000000,,2013-10-22 15:33:00,
2013-10-22 11:43:00,68.0,49.0,-100.00,WSW,239,3.0,10.0,50,0.00,,,0.00,219.000000,,2013-10-22 15:43:00,
2013-10-22 11:54:00,68.0,49.0,-100.00,WSW,239,3.0,10.0,50,0.00,,,0.00,219.000000,,2013-10-22 15:54:00,
2013-10-22 12:01:00,70.0,46.0,-100.00,West,277,3.0,10.0,42,0.00,,,0.00,239.000000,,2013-10-22 16:01:00,
2013-10-22 12:23:00,70.0,46.0,-100.00,West,277,3.0,10.0,42,0.00,,,0.00,239.000000,,2013-10-22 16:23:00,
2013-10-22 12:33:00,70.0,46.0,-100.00,West,277,3.0,10.0,42,0.00,,,0.00,239.000000,,2013-10-22 16:33:00,
2013-10-22 12:43:00,70.0,46.0,-100.00,West,277,3.0,10.0,42,0.00,,,0.00,239.000000,,2013-10-22 16:43:00,
2013-10-22 12:53:00,70.0,46.0,-100.00,West,277,3.0,10.0,42,0.00,,,0.00,239.000000,,2013-10-22 16:53:00,
2013-10-22 13:01:00,69.0,47.0,-100.00,WSW,237,4.0,11.0,45,0.00,,,0.00,244.000000,,2013-10-22 17:01:00,
2013-10-22 13:22:00,69.0,47.0,-100.00,WSW,237,4.0,11.0,45,0.00,,,0.00,244.000000,,2013-10-22 17:22:00,
2013-10-22 13:34:00,69.0,47.0,-100.00,WSW,237,4.0,11.0,45,0.00,,,0.00,244.000000,,2013-10-22 17:34:00,
2013-10-22 13:43:00,69.0,47.0,-100.00,WSW,237,4.0,11.0,45,0.00,,,0.00,244.000000,,2013-10-22 17:43:00,
2013-10-22 13:53:00,69.0,47.0,-100.00,WSW,237,4.0,11.0,45,0.00,,,0.00,244.000000,,2013-10-22 17:53:00,
2013-10-22 14:01:00,70.0,46.0,-100.00,West,273,3.0,13.0,43,0.00,,,0.00,237.000000,,2013-10-22 18:01:00,
2013-10-22 14:42:00,70.0,46.0,-100.00,West,273,3.0,13.0,43,0.00,,,0.00,237.000000,,2013-10-22 18:42:00,
2013-10-22 14:52:00,70.0,46.0,-100.00,West,273,3.0,13.0,43,0.00,,,0.00,237.000000,,2013-10-22 18:52:00,
2013-10-22 15:01:00,66.0,47.0,-100.00,WSW,238,3.0,12.0,50,0.00,,,0.00,161.000000,,2013-10-22 19:01:00,
2013-10-22 15:22:00,66.0,47.0,-100.00,WSW,238,3.0,12.0,50,0.00,,,0.00,161.000000,,2013-10-22 19:22:00,
2013-10-22 15:32:00,66.0,47.0,-100.00,WSW,238,3.0,12.0,50,0.00,,,0.00,161.000000,,2013-10-22 19:32:00,
2013-10-22 15:43:00,66.0,47.0,-100.00,WSW,238,3.0,12.0,50,0.00,,,0.00,161.000000,,2013-10-22 19:43:00,
2013-10-22 15:53:00,66.0,47.0,-100.00,WSW,238,3.0,12.0,50,0.00,,,0.00,161.000000,,2013-10-22 19:53:00,
2013-10-22 16:01:00,63.0,49.0,-100.00,West,279,1.0,10.0,60,0.00,,,0.00,41.000000,,2013-10-22 20:01:00,
2013-10-22 16:22:00,63.0,49.0,-100.00,West,279,1.0,10.0,60,0.00,,,0.00,41.000000,,2013-10-22 20:22:00,
2013-10-22 16:32:00,63.0,49.0,-100.00,West,279,1.0,10.0,60,0.00,,,0.00,41.000000,,2013-10-22 20:32:00,
2013-10-22 16:43:00,63.0,49.0,-100.00,West,279,1.0,10.0,60,0.00,,,0.00,41.000000,,2013-10-22 20:43:00,
2013-10-22 16:52:00,63.0,49.0,-100.00,West,279,1.0,10.0,60,0.00,,,0.00,41.000000,,2013-10-22 20:52:00,
2013-10-22 17:01:00,62.0,50.0,-100.00,SSW,210,1.0,6.0,64,0.00,,,0.00,12.000000,,2013-10-22 21:01:00,
2013-10-22 17:44:00,62.0,50.0,-100.00,SSW,210,1.0,6.0,64,0.00,,,0.00,12.000000,,2013-10-22 21:44:00,
2013-10-22 17:54:00,62.0,50.0,-100.00,SSW,210,1.0,6.0,64,0.00,,,0.00,12.000000,,2013-10-22 21:54:00,
2013-10-22 18:01:00,60.0,50.0,-100.00,NW,315,0.0,3.0,70,0.00,,,0.00,5.000000,,2013-10-22 22:01:00,
2013-10-22 18:44:00,60.0,50.0,-100.00,NW,315,0.0,3.0,70,0.00,,,0.00,5.000000,,2013-10-22 22:44:00,
2013-10-22 18:54:00,60.0,50.0,-100.00,NW,315,0.0,3.0,70,0.00,,,0.00,5.000000,,2013-10-22 22:54:00,
2013-10-22 19:01:00,55.0,49.0,-100.00,NW,319,0.0,2.0,81,0.00,,,0.00,0.000000,,2013-10-22 23:01:00,
2013-10-22 19:43:00,55.0,49.0,-100.00,NW,319,0.0,2.0,81,0.00,,,0.00,0.000000,,2013-10-22 23:43:00,
2013-10-22 19:53:00,55.0,49.0,-100.00,NW,319,0.0,2.0,81,0.00,,,0.00,0.000000,,2013-10-22 23:53:00,
2013-10-22 20:01:00,52.0,45.0,-100.00,WNW,295,0.0,4.0,77,0.00,,,0.00,0.000000,,2013-10-23 00:01:00,
2013-10-22 20:22:00,52.0,45.0,-100.00,WNW,295,0.0,4.0,77,0.00,,,0.00,0.000000,,2013-10-23 00:22:00,
2013-10-22 20:32:00,52.0,45.0,-100.00,WNW,295,0.0,4.0,77,0.00,,,0.00,0.000000,,2013-10-23 00:32:00,
2013-10-22 20:42:00,52.0,45.0,-100.00,WNW,295,0.0,4.0,77,0.00,,,0.00,0.000000,,2013-10-23 00:42:00,
2013-10-22 20:52:00,52.0,45.0,-100.00,WNW,295,0.0,4.0,77,0.00,,,0.00,0.000000,,2013-10-23 00:52:00,
2013-10-22 21:01:00,51.0,43.0,-100.00,WNW,295,0.0,3.0,74,0.00,,,0.00,0.000000,,2013-10-23 01:01:00,
2013-10-22 21:42:00,51.0,43.0,-100.00,WNW,295,0.0,3.0,74,0.00,,,0.00,0.000000,,2013-10-23 01:42:00,
2013-10-22 21:52:00,51.0,43.0,-100.00,WNW,295,0.0,3.0,74,0.00,,,0.00,0.000000,,2013-10-23 01:52:00,
2013-10-22 22:01:00,52.0,43.0,-100.00,WNW,292,1.0,5.0,71,0.00,,,0.00,0.000000,,2013-10-23 02:01:00,
2013-10-22 22:22:00,52.0,43.0,-100.00,WNW,292,1.0,5.0,71,0.00,,,0.00,0.000000,,2013-10-23 02:22:00,
2013-10-22 22:32:00,52.0,43.0,-100.00,WNW,292,1.0,5.0,71,0.00,,,0.00,0.000000,,2013-10-23 02:32:00,
2013-10-22 22:42:00,52.0,43.0,-100.00,WNW,292,1.0,5.0,71,0.00,,,0.00,0.000000,,2013-10-23 02:42:00,
2013-10-22 22:54:00,52.0,43.0,-100.00,WNW,292,1.0,5.0,71,0.00,,,0.00,0.000000,,2013-10-23 02:54:00,
2013-10-22 23:01:00,50.0,43.0,-100.00,WNW,285,0.0,4.0,77,0.00,,,0.00,0.000000,,2013-10-23 03:01:00,
2013-10-22 23:44:00,50.0,43.0,-100.00,WNW,285,0.0,4.0,77,0.00,,,0.00,0.000000,,2013-10-23 03:44:00,
2013-10-22 23:55:00,50.0,43.0,-100.00,WNW,285,0.0,4.0,77,0.00,,,0.00,0.000000,,2013-10-23 03:55:00,